Time;durP1;ratioP1;P1;durP2;ratioP2;P2;SDS_P1;SDS_P2;PMS_P1;PMS_P2;Temp;Humidity;BMP_temperature;BMP_pressure;BME280_temperature;BME280_humidity;BME280_pressure;Samples;Min_cycle;Max_cycle;Signal;HPM_P1;HPM_P2
2024/01/15 00:03:01;;;;;;;22.05;12.40;;;;;;;;;;10235021;28;20043;-59
2024/01/15 00:08:01;;;;;;;15.55;11.52;;;;;;;;;;10244181;28;20027;-59
2024/01/15 00:13:02;;;;;;;20.98;12.65;;;;;;;;;;10243868;29;20020;-59
2024/01/15 00:18:03;;;;;;;20.13;12.30;;;;;;;;;;10244830;28;20031;-59
2024/01/15 00:23:03;;;;;;;16.50;11.60;;;;;;;;;;10242903;28;20395;-59
2024/01/15 00:28:05;;;;;;;15.57;10.68;;;;;;;;;;10243049;29;20746;-59
2024/01/15 00:33:05;;;;;;;18.27;11.73;;;;;;;;;;10249208;28;20494;-59
2024/01/15 00:38:07;;;;;;;14.45;11.02;;;;;;;;;;10250609;28;20058;-59
2024/01/15 00:43:08;;;;;;;15.98;11.20;;;;;;;;;;10251019;28;20364;-59
2024/01/15 00:48:08;;;;;;;15.50;10.88;;;;;;;;;;10249566;28;20031;-60
2024/01/15 00:53:09;;;;;;;15.02;10.88;;;;;;;;;;10248884;28;20117;-60
2024/01/15 00:58:09;;;;;;;19.55;11.35;;;;;;;;;;10250391;28;20035;-60
2024/01/15 01:03:10;;;;;;;19.10;10.82;;;;;;;;;;10234254;28;20039;-60
2024/01/15 01:08:11;;;;;;;15.57;10.88;;;;;;;;;;10255402;28;20534;-59
2024/01/15 01:13:11;;;;;;;15.13;10.60;;;;;;;;;;10250191;28;20038;-59
2024/01/15 01:18:12;;;;;;;18.13;10.63;;;;;;;;;;10254979;28;20423;-60
2024/01/15 01:23:12;;;;;;;15.05;10.93;;;;;;;;;;10248860;28;20032;-59
2024/01/15 01:28:13;;;;;;;14.75;9.80;;;;;;;;;;10248989;29;20037;-59
2024/01/15 01:33:13;;;;;;;13.90;9.75;;;;;;;;;;10249492;28;20032;-59
2024/01/15 01:38:14;;;;;;;15.35;10.23;;;;;;;;;;10248242;28;20036;-59
2024/01/15 01:43:14;;;;;;;15.73;9.82;;;;;;;;;;10247796;28;20058;-59
2024/01/15 01:48:15;;;;;;;13.70;9.77;;;;;;;;;;10245950;28;20038;-59
2024/01/15 01:53:16;;;;;;;18.13;9.85;;;;;;;;;;10248399;28;20406;-58
2024/01/15 01:58:18;;;;;;;13.98;9.65;;;;;;;;;;10246953;28;20390;-60
2024/01/15 02:03:19;;;;;;;13.38;9.52;;;;;;;;;;10245804;29;20046;-60
2024/01/15 02:08:20;;;;;;;11.60;8.55;;;;;;;;;;10231549;28;20067;-60
2024/01/15 02:13:21;;;;;;;11.07;8.75;;;;;;;;;;10246390;29;20474;-59
2024/01/15 02:18:22;;;;;;;12.80;9.43;;;;;;;;;;10247224;28;20086;-60
2024/01/15 02:23:22;;;;;;;14.18;8.93;;;;;;;;;;10247570;28;20400;-59
2024/01/15 02:28:23;;;;;;;10.43;8.40;;;;;;;;;;10249799;28;20031;-59
2024/01/15 02:33:23;;;;;;;13.52;8.45;;;;;;;;;;10245361;28;20031;-59
2024/01/15 02:38:24;;;;;;;15.07;8.82;;;;;;;;;;10246378;28;20043;-60
2024/01/15 02:43:25;;;;;;;11.55;8.60;;;;;;;;;;10241537;28;20774;-59
2024/01/15 02:48:25;;;;;;;13.25;8.52;;;;;;;;;;10245498;28;20035;-60
2024/01/15 02:53:26;;;;;;;14.50;8.95;;;;;;;;;;10244840;28;20035;-60
2024/01/15 02:58:26;;;;;;;11.63;8.55;;;;;;;;;;10242029;28;20032;-59
2024/01/15 03:03:27;;;;;;;11.43;8.60;;;;;;;;;;10246411;28;20031;-60
2024/01/15 03:08:29;;;;;;;11.75;8.40;;;;;;;;;;10243490;28;20027;-61
2024/01/15 03:13:29;;;;;;;11.65;8.20;;;;;;;;;;10244880;28;20514;-60
2024/01/15 03:18:30;;;;;;;11.35;7.32;;;;;;;;;;10244547;28;20027;-60
2024/01/15 03:23:30;;;;;;;12.25;8.18;;;;;;;;;;10243954;28;20094;-59
2024/01/15 03:28:31;;;;;;;12.75;8.38;;;;;;;;;;10244888;28;20035;-59
2024/01/15 03:33:31;;;;;;;11.57;7.88;;;;;;;;;;10244317;28;20033;-60
2024/01/15 03:38:32;;;;;;;11.85;8.35;;;;;;;;;;10234337;28;20055;-61
2024/01/15 03:43:33;;;;;;;11.30;8.35;;;;;;;;;;10243964;28;20027;-61
2024/01/15 03:48:33;;;;;;;14.13;7.75;;;;;;;;;;10244591;28;20570;-61
2024/01/15 03:53:34;;;;;;;10.18;7.80;;;;;;;;;;10243964;29;20534;-63
2024/01/15 03:58:34;;;;;;;10.18;8.10;;;;;;;;;;10243990;28;20472;-62
2024/01/15 04:03:35;;;;;;;11.13;7.63;;;;;;;;;;10244316;28;20031;-61
2024/01/15 04:08:36;;;;;;;10.20;7.20;;;;;;;;;;10250401;28;20102;-61
2024/01/15 04:13:36;;;;;;;11.55;7.65;;;;;;;;;;10252072;29;20415;-61
2024/01/15 04:18:37;;;;;;;18.40;8.18;;;;;;;;;;10251788;28;20439;-60
2024/01/15 04:23:39;;;;;;;9.93;6.68;;;;;;;;;;10251592;28;20031;-60
2024/01/15 04:28:40;;;;;;;10.10;7.28;;;;;;;;;;10259673;28;20042;-60
2024/01/15 04:33:40;;;;;;;14.05;7.80;;;;;;;;;;10250102;28;20031;-60
2024/01/15 04:38:41;;;;;;;9.02;7.32;;;;;;;;;;10250848;28;20039;-60
2024/01/15 04:43:42;;;;;;;7.78;6.18;;;;;;;;;;10249767;28;20376;-59
2024/01/15 04:48:42;;;;;;;10.73;7.55;;;;;;;;;;10250710;28;20204;-60
2024/01/15 04:53:44;;;;;;;11.18;7.70;;;;;;;;;;10250224;28;20027;-59
2024/01/15 04:58:44;;;;;;;11.10;7.50;;;;;;;;;;10247014;28;20475;-59
2024/01/15 05:03:45;;;;;;;9.63;7.10;;;;;;;;;;10239254;28;20055;-59
2024/01/15 05:08:45;;;;;;;8.98;7.50;;;;;;;;;;10247679;28;20494;-59
2024/01/15 05:13:46;;;;;;;8.38;6.47;;;;;;;;;;10249923;29;20035;-60
2024/01/15 05:18:47;;;;;;;8.75;6.70;;;;;;;;;;10249300;28;20039;-63
2024/01/15 05:23:47;;;;;;;10.05;6.53;;;;;;;;;;10249613;28;20350;-60
2024/01/15 05:28:48;;;;;;;10.40;7.03;;;;;;;;;;10248662;28;20479;-59
2024/01/15 05:33:48;;;;;;;10.73;6.75;;;;;;;;;;10247734;28;20039;-60
2024/01/15 05:38:49;;;;;;;8.23;6.65;;;;;;;;;;10248775;28;20039;-59
2024/01/15 05:43:50;;;;;;;11.50;7.05;;;;;;;;;;10247226;28;20476;-59
2024/01/15 05:48:50;;;;;;;10.23;7.15;;;;;;;;;;10247535;28;20038;-59
2024/01/15 05:53:51;;;;;;;12.20;7.90;;;;;;;;;;10253427;28;20422;-59
2024/01/15 05:58:52;;;;;;;8.82;7.10;;;;;;;;;;10246958;28;20365;-59
2024/01/15 06:03:52;;;;;;;10.98;6.93;;;;;;;;;;10247369;28;20493;-59
2024/01/15 06:08:53;;;;;;;8.05;6.65;;;;;;;;;;10247727;28;20479;-59
2024/01/15 06:13:53;;;;;;;8.23;6.50;;;;;;;;;;10244224;28;20039;-60
2024/01/15 06:18:54;;;;;;;11.10;6.90;;;;;;;;;;10235223;28;20042;-59
2024/01/15 06:23:56;;;;;;;10.88;7.00;;;;;;;;;;10243680;28;20042;-60
2024/01/15 06:28:56;;;;;;;6.93;6.13;;;;;;;;;;10239066;28;20051;-59
2024/01/15 06:33:58;;;;;;;9.50;6.80;;;;;;;;;;10246879;29;20027;-59
2024/01/15 06:38:59;;;;;;;8.90;6.47;;;;;;;;;;10244175;28;20050;-60
2024/01/15 06:43:59;;;;;;;7.13;6.32;;;;;;;;;;10245539;28;20027;-59
2024/01/15 06:49:00;;;;;;;7.60;6.38;;;;;;;;;;10245266;28;20038;-60
2024/01/15 06:54:00;;;;;;;10.02;6.47;;;;;;;;;;10247692;28;20097;-60
2024/01/15 06:59:01;;;;;;;10.57;6.43;;;;;;;;;;10246889;28;20102;-61
2024/01/15 07:04:01;;;;;;;18.42;9.02;;;;;;;;;;10245202;28;20043;-60
2024/01/15 07:09:02;;;;;;;16.83;8.93;;;;;;;;;;10245037;28;20035;-60
2024/01/15 07:14:03;;;;;;;14.75;10.05;;;;;;;;;;10238066;28;20039;-59
2024/01/15 07:19:05;;;;;;;16.67;10.40;;;;;;;;;;10251531;28;20034;-60
2024/01/15 07:24:05;;;;;;;18.67;9.80;;;;;;;;;;10244832;28;20363;-60
2024/01/15 07:29:06;;;;;;;16.58;9.75;;;;;;;;;;10244850;28;20020;-59
2024/01/15 07:34:06;;;;;;;21.27;9.63;;;;;;;;;;10240585;28;20468;-60
2024/01/15 07:39:07;;;;;;;15.55;9.35;;;;;;;;;;10241704;28;20039;-59
2024/01/15 07:44:07;;;;;;;15.48;9.75;;;;;;;;;;10244352;28;20042;-59
2024/01/15 07:49:08;;;;;;;17.23;9.85;;;;;;;;;;10244379;28;20023;-59
2024/01/15 07:54:09;;;;;;;12.77;9.10;;;;;;;;;;10244769;28;20039;-59
2024/01/15 07:59:10;;;;;;;14.48;8.90;;;;;;;;;;10244444;28;20031;-59
2024/01/15 08:04:12;;;;;;;16.05;9.60;;;;;;;;;;10244301;28;20395;-59
2024/01/15 08:09:13;;;;;;;11.80;8.95;;;;;;;;;;10244573;28;20027;-59
2024/01/15 08:14:13;;;;;;;13.88;9.68;;;;;;;;;;10243623;28;20035;-59
2024/01/15 08:19:14;;;;;;;14.63;9.65;;;;;;;;;;10243674;28;20047;-59
2024/01/15 08:24:15;;;;;;;17.13;10.23;;;;;;;;;;10243488;28;20045;-60
2024/01/15 08:29:16;;;;;;;15.23;9.32;;;;;;;;;;10243739;28;20059;-59
2024/01/15 08:34:16;;;;;;;15.35;10.52;;;;;;;;;;10236354;28;20487;-60
2024/01/15 08:39:19;;;;;;;14.75;10.77;;;;;;;;;;10244013;28;20058;-60
2024/01/15 08:44:19;;;;;;;15.82;10.90;;;;;;;;;;10243122;28;20031;-59
2024/01/15 08:49:20;;;;;;;16.98;10.25;;;;;;;;;;10243431;28;20102;-59
2024/01/15 08:54:20;;;;;;;16.38;9.98;;;;;;;;;;10248491;28;20043;-59
2024/01/15 08:59:25;;;;;;;16.58;10.15;;;;;;;;;;10240949;28;20035;-59
2024/01/15 09:04:26;;;;;;;19.77;10.50;;;;;;;;;;10249861;28;20035;-59
2024/01/15 09:09:27;;;;;;;16.88;10.50;;;;;;;;;;10250431;28;20035;-59
2024/01/15 09:14:28;;;;;;;18.85;10.27;;;;;;;;;;10250045;28;20484;-59
2024/01/15 09:19:29;;;;;;;15.90;10.45;;;;;;;;;;10249832;28;20031;-59
2024/01/15 09:24:30;;;;;;;14.38;10.05;;;;;;;;;;10249576;28;20043;-59
2024/01/15 09:29:30;;;;;;;18.83;10.88;;;;;;;;;;10249086;28;20039;-59
2024/01/15 09:34:31;;;;;;;16.25;10.63;;;;;;;;;;10249143;28;20035;-59
2024/01/15 09:39:31;;;;;;;14.02;10.38;;;;;;;;;;10248748;28;20050;-59
2024/01/15 09:44:32;;;;;;;19.13;11.20;;;;;;;;;;10248485;28;20031;-59
2024/01/15 09:49:33;;;;;;;16.92;11.10;;;;;;;;;;10248865;28;20030;-59
2024/01/15 09:54:34;;;;;;;17.30;11.27;;;;;;;;;;10248210;29;20471;-59
2024/01/15 09:59:37;;;;;;;23.63;11.38;;;;;;;;;;10240125;28;20066;-59
2024/01/15 10:04:38;;;;;;;17.45;11.15;;;;;;;;;;10245772;28;20106;-59
2024/01/15 10:09:38;;;;;;;17.20;11.05;;;;;;;;;;10249728;28;20027;-59
2024/01/15 10:14:42;;;;;;;20.13;12.10;;;;;;;;;;10236447;28;20035;-59
2024/01/15 10:19:44;;;;;;;24.23;11.20;;;;;;;;;;10247912;28;20428;-60
2024/01/15 10:24:46;;;;;;;18.25;11.73;;;;;;;;;;10247320;29;20062;-59
2024/01/15 10:29:47;;;;;;;16.25;10.48;;;;;;;;;;10246349;29;20039;-59
2024/01/15 10:34:47;;;;;;;18.25;11.75;;;;;;;;;;10258524;28;20035;-59
2024/01/15 10:39:48;;;;;;;16.63;10.90;;;;;;;;;;10243962;28;20058;-59
2024/01/15 10:44:49;;;;;;;20.05;12.43;;;;;;;;;;10246505;28;20186;-59
2024/01/15 10:49:50;;;;;;;17.88;11.75;;;;;;;;;;10246194;28;20027;-59
2024/01/15 10:54:51;;;;;;;19.77;12.35;;;;;;;;;;10246369;28;20042;-59
2024/01/15 10:59:51;;;;;;;16.85;11.93;;;;;;;;;;10244816;29;20027;-59
2024/01/15 11:04:52;;;;;;;17.42;11.48;;;;;;;;;;10243901;28;20428;-59
2024/01/15 11:09:52;;;;;;;17.95;11.88;;;;;;;;;;10245967;28;20466;-59
2024/01/15 11:15:04;;;;;;;16.52;10.77;;;;;;;;;;10245406;28;20039;-59
2024/01/15 11:20:06;;;;;;;17.75;11.48;;;;;;;;;;10245295;28;20179;-59
2024/01/15 11:25:14;;;;;;;18.80;11.60;;;;;;;;;;10237583;28;20122;-59
2024/01/15 11:30:14;;;;;;;15.50;10.88;;;;;;;;;;10245148;28;20452;-59
2024/01/15 11:35:18;;;;;;;15.32;11.13;;;;;;;;;;10257614;23;20027;-66
2024/01/15 11:40:43;;;;;;;17.25;11.40;;;;;;;;;;10214986;29;20044;-66
2024/01/15 11:45:45;;;;;;;16.00;10.75;;;;;;;;;;10214200;28;20032;-66
2024/01/15 11:50:49;;;;;;;15.77;11.32;;;;;;;;;;10215302;29;20027;-66
2024/01/15 11:55:53;;;;;;;17.08;11.73;;;;;;;;;;10213969;29;20054;-65
2024/01/15 12:00:54;;;;;;;19.80;11.68;;;;;;;;;;10213919;29;20039;-65
2024/01/15 12:05:58;;;;;;;16.10;11.23;;;;;;;;;;10213833;29;20028;-65
2024/01/15 12:11:00;;;;;;;15.63;10.93;;;;;;;;;;10213791;29;20059;-65
2024/01/15 12:16:04;;;;;;;16.08;11.10;;;;;;;;;;10212443;29;20031;-65
2024/01/15 12:21:05;;;;;;;16.77;11.13;;;;;;;;;;10214131;28;20039;-65
2024/01/15 12:26:07;;;;;;;18.10;11.15;;;;;;;;;;10215000;29;20031;-65
2024/01/15 12:31:08;;;;;;;15.63;10.82;;;;;;;;;;10221134;29;20042;-65
2024/01/15 12:36:12;;;;;;;14.85;10.20;;;;;;;;;;10221152;29;20059;-62
2024/01/15 12:41:15;;;;;;;15.15;10.55;;;;;;;;;;10220681;29;20058;-64
2024/01/15 12:46:19;;;;;;;15.32;10.25;;;;;;;;;;10221070;28;20038;-63
2024/01/15 12:51:26;;;;;;;15.80;9.90;;;;;;;;;;10221001;29;20038;-63
2024/01/15 12:56:28;;;;;;;13.35;9.82;;;;;;;;;;10220588;29;20035;-64
2024/01/15 13:01:30;;;;;;;12.95;9.63;;;;;;;;;;10219923;29;20036;-63
2024/01/15 13:06:31;;;;;;;16.75;9.82;;;;;;;;;;10219035;29;20032;-63
2024/01/15 13:11:33;;;;;;;13.93;9.95;;;;;;;;;;10220275;29;20032;-63
2024/01/15 13:16:35;;;;;;;11.65;8.57;;;;;;;;;;10219468;29;20411;-63
2024/01/15 13:21:42;;;;;;;12.43;8.52;;;;;;;;;;10219259;29;20036;-63
2024/01/15 13:26:45;;;;;;;14.02;9.05;;;;;;;;;;10220215;29;20364;-63
2024/01/15 13:31:46;;;;;;;13.30;8.77;;;;;;;;;;10218919;28;20036;-63
2024/01/15 13:36:49;;;;;;;14.43;8.93;;;;;;;;;;10218134;29;20070;-63
2024/01/15 13:41:51;;;;;;;16.10;8.90;;;;;;;;;;10218319;29;20115;-63
2024/01/15 13:46:53;;;;;;;13.85;8.73;;;;;;;;;;10218942;28;20039;-63
2024/01/15 13:51:54;;;;;;;11.13;8.30;;;;;;;;;;10219414;29;20027;-63
2024/01/15 13:56:56;;;;;;;11.85;8.43;;;;;;;;;;10217998;28;20046;-63
2024/01/15 14:01:58;;;;;;;11.63;8.27;;;;;;;;;;10217725;29;20428;-64
2024/01/15 14:06:59;;;;;;;18.40;9.00;;;;;;;;;;10217617;28;20035;-63
2024/01/15 14:12:02;;;;;;;12.07;8.30;;;;;;;;;;10217952;29;20107;-63
2024/01/15 14:17:03;;;;;;;13.68;8.93;;;;;;;;;;10217122;29;20127;-63
2024/01/15 14:22:05;;;;;;;10.82;8.30;;;;;;;;;;10216974;28;20552;-63
2024/01/15 14:27:07;;;;;;;15.32;8.63;;;;;;;;;;10216736;29;20387;-63
2024/01/15 14:32:08;;;;;;;16.67;9.32;;;;;;;;;;10216561;28;20032;-63
2024/01/15 14:37:10;;;;;;;15.05;9.80;;;;;;;;;;10216549;29;20047;-63
2024/01/15 14:42:12;;;;;;;13.90;9.48;;;;;;;;;;10217304;29;20035;-63
2024/01/15 14:47:14;;;;;;;14.70;9.57;;;;;;;;;;10216339;29;20035;-63
2024/01/15 14:52:16;;;;;;;11.43;8.07;;;;;;;;;;10215536;29;20038;-63
2024/01/15 14:57:18;;;;;;;12.52;9.27;;;;;;;;;;10214848;29;20082;-63
2024/01/15 15:02:20;;;;;;;11.50;8.40;;;;;;;;;;10216035;29;20036;-63
2024/01/15 15:07:22;;;;;;;10.18;7.80;;;;;;;;;;10215830;29;20027;-63
2024/01/15 15:12:23;;;;;;;12.25;8.50;;;;;;;;;;10215083;29;20034;-63
2024/01/15 15:17:25;;;;;;;10.65;7.55;;;;;;;;;;10215388;29;20568;-63
2024/01/15 15:22:27;;;;;;;12.25;8.10;;;;;;;;;;10215153;29;20040;-63
2024/01/15 15:27:29;;;;;;;11.25;8.70;;;;;;;;;;10214472;29;20027;-63
2024/01/15 15:32:30;;;;;;;12.55;8.35;;;;;;;;;;10214588;29;20091;-63
2024/01/15 15:37:32;;;;;;;13.55;8.73;;;;;;;;;;10214152;29;20044;-63
2024/01/15 15:42:33;;;;;;;10.60;7.60;;;;;;;;;;10214314;29;20364;-63
2024/01/15 15:47:35;;;;;;;15.48;9.15;;;;;;;;;;10214205;29;20035;-63
2024/01/15 15:52:37;;;;;;;12.63;8.15;;;;;;;;;;10213538;28;20039;-63
2024/01/15 15:57:38;;;;;;;20.83;7.82;;;;;;;;;;10214521;28;20083;-63
2024/01/15 16:02:40;;;;;;;10.25;7.57;;;;;;;;;;10217636;29;20032;-63
2024/01/15 16:07:42;;;;;;;10.52;7.30;;;;;;;;;;10222227;29;20024;-64
2024/01/15 16:12:44;;;;;;;13.02;7.32;;;;;;;;;;10221798;29;20024;-64
2024/01/15 16:17:48;;;;;;;12.60;7.60;;;;;;;;;;10221823;29;20034;-64
2024/01/15 16:22:50;;;;;;;9.95;6.70;;;;;;;;;;10221499;29;20038;-64
2024/01/15 16:27:52;;;;;;;7.90;6.68;;;;;;;;;;10221439;29;20039;-64
2024/01/15 16:32:54;;;;;;;9.93;7.28;;;;;;;;;;10221194;29;20034;-64
2024/01/15 16:37:55;;;;;;;9.73;7.30;;;;;;;;;;10220753;29;20063;-64
2024/01/15 16:42:57;;;;;;;9.95;7.10;;;;;;;;;;10221281;29;20042;-64
2024/01/15 16:47:59;;;;;;;10.98;7.55;;;;;;;;;;10220547;29;20083;-64
2024/01/15 16:53:01;;;;;;;9.02;7.05;;;;;;;;;;10220415;29;20039;-64
2024/01/15 16:58:03;;;;;;;9.48;7.05;;;;;;;;;;10220214;28;20028;-64
2024/01/15 17:03:05;;;;;;;12.73;6.80;;;;;;;;;;10219958;28;20031;-64
2024/01/15 17:08:07;;;;;;;8.60;7.10;;;;;;;;;;10220103;29;20154;-64
2024/01/15 17:13:09;;;;;;;12.68;6.82;;;;;;;;;;10219500;29;20369;-64
2024/01/15 17:18:11;;;;;;;11.18;7.10;;;;;;;;;;10219493;29;20028;-64
2024/01/15 17:23:13;;;;;;;12.00;7.82;;;;;;;;;;10219297;29;20070;-64
2024/01/15 17:28:15;;;;;;;10.07;6.85;;;;;;;;;;10219656;29;20062;-64
2024/01/15 17:33:17;;;;;;;10.52;7.30;;;;;;;;;;10219542;28;20035;-64
2024/01/15 17:38:20;;;;;;;9.43;7.00;;;;;;;;;;10218472;29;20510;-64
2024/01/15 17:43:22;;;;;;;9.73;6.97;;;;;;;;;;10218590;29;20028;-64
2024/01/15 17:48:24;;;;;;;10.32;7.38;;;;;;;;;;10218525;29;20468;-64
2024/01/15 17:53:26;;;;;;;12.50;7.72;;;;;;;;;;10218219;28;20062;-64
2024/01/15 17:58:27;;;;;;;10.95;6.97;;;;;;;;;;10218010;28;20039;-64
2024/01/15 18:03:29;;;;;;;14.25;8.15;;;;;;;;;;10217744;29;20468;-65
2024/01/15 18:08:30;;;;;;;11.93;7.75;;;;;;;;;;10217715;29;20126;-65
2024/01/15 18:13:33;;;;;;;11.65;8.88;;;;;;;;;;10216161;29;20392;-65
2024/01/15 18:18:35;;;;;;;13.38;9.93;;;;;;;;;;10217220;29;20499;-65
2024/01/15 18:23:37;;;;;;;20.17;11.38;;;;;;;;;;10216987;28;20044;-66
2024/01/15 18:28:39;;;;;;;14.65;10.30;;;;;;;;;;10216911;29;20032;-64
2024/01/15 18:33:40;;;;;;;18.10;10.90;;;;;;;;;;10216709;29;20076;-65
2024/01/15 18:38:42;;;;;;;17.30;10.70;;;;;;;;;;10216323;29;20392;-64
2024/01/15 18:43:44;;;;;;;14.02;10.82;;;;;;;;;;10216281;29;20031;-64
2024/01/15 18:48:46;;;;;;;16.58;9.75;;;;;;;;;;10216013;29;20079;-64
2024/01/15 18:53:49;;;;;;;15.93;9.73;;;;;;;;;;10216544;29;20027;-64
2024/01/15 18:58:51;;;;;;;11.70;8.95;;;;;;;;;;10216251;29;20118;-64
2024/01/15 19:03:52;;;;;;;10.75;8.60;;;;;;;;;;10214389;29;20031;-64
2024/01/15 19:08:54;;;;;;;11.25;7.82;;;;;;;;;;10216029;29;20110;-65
2024/01/15 19:13:56;;;;;;;14.90;9.05;;;;;;;;;;10215174;29;20502;-65
2024/01/15 19:18:58;;;;;;;13.35;9.13;;;;;;;;;;10215083;29;20037;-64
2024/01/15 19:24:02;;;;;;;11.30;8.85;;;;;;;;;;10214883;28;20051;-65
2024/01/15 19:29:07;;;;;;;11.75;8.75;;;;;;;;;;10214651;29;20032;-63
2024/01/15 19:34:08;;;;;;;37.78;11.18;;;;;;;;;;10215219;29;20032;-64
2024/01/15 19:39:10;;;;;;;36.63;14.82;;;;;;;;;;10214163;29;20130;-64
2024/01/15 19:44:12;;;;;;;26.77;14.00;;;;;;;;;;10214868;29;20027;-64
2024/01/15 19:49:14;;;;;;;29.52;13.82;;;;;;;;;;10214249;29;20042;-64
2024/01/15 19:54:17;;;;;;;30.55;14.82;;;;;;;;;;10215319;29;20035;-64
2024/01/15 19:59:20;;;;;;;27.52;15.10;;;;;;;;;;10214592;29;20091;-64
2024/01/15 20:04:22;;;;;;;30.52;15.18;;;;;;;;;;10213897;29;20042;-64
2024/01/15 20:09:24;;;;;;;29.75;16.15;;;;;;;;;;10212669;29;20075;-64
2024/01/15 20:14:27;;;;;;;27.58;15.18;;;;;;;;;;10214442;29;20039;-64
2024/01/15 20:19:29;;;;;;;28.35;15.85;;;;;;;;;;10213590;28;20099;-64
2024/01/15 20:24:30;;;;;;;27.58;15.07;;;;;;;;;;10213520;29;20071;-64
2024/01/15 20:29:31;;;;;;;26.65;15.48;;;;;;;;;;10213606;29;20024;-65
2024/01/15 20:34:33;;;;;;;23.67;15.30;;;;;;;;;;10213530;29;20059;-64
2024/01/15 20:39:34;;;;;;;26.30;15.60;;;;;;;;;;10213297;29;20048;-64
2024/01/15 20:44:36;;;;;;;25.15;15.27;;;;;;;;;;10213267;28;20119;-64
2024/01/15 20:49:38;;;;;;;28.48;15.05;;;;;;;;;;10218575;29;20035;-65
2024/01/15 20:54:40;;;;;;;26.92;15.82;;;;;;;;;;10221660;29;20032;-64
2024/01/15 20:59:43;;;;;;;25.63;14.35;;;;;;;;;;10220377;29;20365;-64
2024/01/15 21:04:45;;;;;;;24.52;14.35;;;;;;;;;;10220536;29;20038;-64
2024/01/15 21:09:46;;;;;;;26.77;14.13;;;;;;;;;;10220017;29;20039;-64
2024/01/15 21:14:47;;;;;;;20.90;12.80;;;;;;;;;;10220316;29;20122;-64
2024/01/15 21:19:55;;;;;;;22.20;12.95;;;;;;;;;;10220245;29;20031;-64
2024/01/15 21:24:58;;;;;;;21.45;13.23;;;;;;;;;;10219347;28;20523;-64
2024/01/15 21:29:59;;;;;;;26.25;13.50;;;;;;;;;;10219195;29;20032;-64
2024/01/15 21:35:01;;;;;;;26.33;12.98;;;;;;;;;;10219442;29;20110;-64
2024/01/15 21:40:06;;;;;;;20.17;12.65;;;;;;;;;;10218672;29;20071;-64
2024/01/15 21:45:10;;;;;;;21.25;13.50;;;;;;;;;;10218592;28;20070;-64
2024/01/15 21:50:12;;;;;;;22.38;14.18;;;;;;;;;;10218527;29;20115;-64
2024/01/15 21:55:16;;;;;;;23.23;13.30;;;;;;;;;;10218184;29;20023;-65
2024/01/15 22:00:18;;;;;;;21.67;14.05;;;;;;;;;;10217505;28;20035;-64
2024/01/15 22:05:20;;;;;;;27.00;13.52;;;;;;;;;;10218324;29;20023;-64
2024/01/15 22:10:22;;;;;;;20.25;13.70;;;;;;;;;;10217690;29;20379;-64
2024/01/15 22:15:25;;;;;;;26.17;13.43;;;;;;;;;;10217410;29;20026;-64
2024/01/15 22:20:27;;;;;;;18.73;12.18;;;;;;;;;;10217804;29;20028;-64
2024/01/15 22:25:28;;;;;;;21.73;12.82;;;;;;;;;;10217629;29;20023;-64
2024/01/15 22:30:33;;;;;;;22.30;12.18;;;;;;;;;;10216859;29;20055;-65
2024/01/15 22:35:35;;;;;;;24.27;12.13;;;;;;;;;;10216776;29;20468;-65
2024/01/15 22:40:37;;;;;;;21.15;12.57;;;;;;;;;;10216965;29;20048;-66
2024/01/15 22:45:38;;;;;;;22.10;13.50;;;;;;;;;;10213971;28;20478;-66
2024/01/15 22:50:38;;;;;;;18.25;12.50;;;;;;;;;;10205734;29;20039;-66
2024/01/15 22:55:39;;;;;;;21.67;13.13;;;;;;;;;;10212361;29;20020;-65
2024/01/15 23:00:43;;;;;;;25.50;13.07;;;;;;;;;;10195997;29;20078;-65
2024/01/15 23:05:44;;;;;;;26.27;12.75;;;;;;;;;;10204586;29;20036;-65
2024/01/15 23:10:45;;;;;;;17.38;11.52;;;;;;;;;;10204338;29;20032;-65
2024/01/15 23:15:45;;;;;;;18.98;12.63;;;;;;;;;;10205269;28;20036;-66
2024/01/15 23:20:46;;;;;;;17.70;12.85;;;;;;;;;;10194463;28;20059;-66
2024/01/15 23:25:46;;;;;;;19.77;11.77;;;;;;;;;;10204472;29;20032;-66
2024/01/15 23:30:47;;;;;;;20.27;11.52;;;;;;;;;;10197049;29;20279;-66
2024/01/15 23:35:48;;;;;;;23.08;12.18;;;;;;;;;;10194693;29;20123;-66
2024/01/15 23:40:48;;;;;;;19.67;12.10;;;;;;;;;;10199821;29;20083;-66
2024/01/15 23:45:49;;;;;;;18.25;12.00;;;;;;;;;;10203635;28;20035;-66
2024/01/15 23:50:50;;;;;;;20.08;11.15;;;;;;;;;;10205076;28;20039;-66
2024/01/15 23:55:51;;;;;;;17.33;11.00;;;;;;;;;;10202477;29;20387;-66
